Time;durP1;ratioP1;P1;durP2;ratioP2;P2;SDS_P1;SDS_P2;PMS_P1;PMS_P2;Temp;Humidity;BMP_temperature;BMP_pressure;BME280_temperature;BME280_humidity;BME280_pressure;Samples;Min_cycle;Max_cycle;Signal;HPM_P1;HPM_P2
2022/03/07 00:01:49;;;;;;;30.73;19.35;;;;;;;-0.41;75.19;100354.06;5073701;28;20021;-81
2022/03/07 00:04:17;;;;;;;35.45;21.55;;;;;;;-0.41;74.71;100357.47;5073738;28;20032;-81
2022/03/07 00:06:49;;;;;;;34.08;20.83;;;;;;;-0.44;75.17;100349.75;5073661;28;20472;-81
2022/03/07 00:09:15;;;;;;;29.88;19.35;;;;;;;-0.44;74.77;100349.75;5073461;28;20472;-82
2022/03/07 00:11:42;;;;;;;30.95;19.83;;;;;;;-0.51;75.37;100340.31;5073623;28;20388;-82
2022/03/07 00:14:07;;;;;;;30.02;19.15;;;;;;;-0.46;75.55;100353.13;5073305;28;20093;-82
2022/03/07 00:16:33;;;;;;;28.25;18.10;;;;;;;-0.43;75.02;100348.06;5074723;28;20464;-81
2022/03/07 00:18:58;;;;;;;28.45;19.35;;;;;;;-0.42;75.19;100353.22;5074521;28;20157;-81
2022/03/07 00:21:24;;;;;;;27.42;18.38;;;;;;;-0.38;75.43;100360.06;5073483;28;20476;-82
2022/03/07 00:23:50;;;;;;;30.13;19.38;;;;;;;-0.49;75.21;100345.47;5073432;28;20115;-82
2022/03/07 00:26:17;;;;;;;31.33;20.30;;;;;;;-0.38;75.39;100356.63;5072139;28;20496;-82
2022/03/07 00:28:43;;;;;;;29.13;19.15;;;;;;;-0.38;75.27;100354.06;5074344;28;20025;-82
2022/03/07 00:31:09;;;;;;;32.28;19.08;;;;;;;-0.35;75.34;100357.50;5072876;28;20081;-82
2022/03/07 00:33:35;;;;;;;29.08;18.92;;;;;;;-0.42;75.75;100349.75;5073299;28;20032;-82
2022/03/07 00:36:01;;;;;;;30.67;19.33;;;;;;;-0.35;75.77;100357.50;5074315;28;20020;-80
2022/03/07 00:38:27;;;;;;;29.40;19.15;;;;;;;-0.45;75.76;100340.38;5074753;28;20432;-82
2022/03/07 00:40:52;;;;;;;29.08;19.70;;;;;;;-0.44;76.34;100339.53;5073063;28;20127;-81
2022/03/07 00:43:21;;;;;;;31.25;19.48;;;;;;;-0.38;76.42;100348.94;5072736;28;20032;-81
2022/03/07 00:45:47;;;;;;;31.00;19.90;;;;;;;-0.37;76.57;100345.56;5072581;28;20076;-82
2022/03/07 00:48:12;;;;;;;27.70;18.63;;;;;;;-0.35;76.40;100351.53;5074095;28;20051;-81
2022/03/07 00:50:43;;;;;;;30.85;19.08;;;;;;;-0.36;76.31;100348.13;5072982;28;20472;-82
2022/03/07 00:53:13;;;;;;;28.95;19.27;;;;;;;-0.35;76.50;100344.72;5072568;28;20067;-83
2022/03/07 00:55:40;;;;;;;28.20;18.88;;;;;;;-0.37;77.33;100343.88;5074090;28;20033;-80
2022/03/07 00:58:05;;;;;;;31.42;20.40;;;;;;;-0.38;76.92;100347.28;5072462;28;20504;-81
2022/03/07 01:00:32;;;;;;;31.35;19.90;;;;;;;-0.38;77.17;100347.28;5074268;28;20036;-81
2022/03/07 01:02:58;;;;;;;29.92;18.98;;;;;;;-0.42;77.65;100335.28;5073911;28;20020;-81
2022/03/07 01:05:23;;;;;;;30.52;19.67;;;;;;;-0.50;78.07;100324.13;5072795;28;20028;-81
2022/03/07 01:07:49;;;;;;;30.58;19.27;;;;;;;-0.48;77.96;100321.56;5073807;28;20024;-81
2022/03/07 01:10:14;;;;;;;31.20;19.38;;;;;;;-0.39;77.83;100342.97;5072238;28;20028;-81
2022/03/07 01:12:40;;;;;;;26.17;18.77;;;;;;;-0.34;78.42;100346.47;5072406;28;20027;-82
2022/03/07 01:15:07;;;;;;;39.13;23.20;;;;;;;-0.49;78.14;100317.31;5072360;28;20139;-81
2022/03/07 01:17:33;;;;;;;32.97;20.58;;;;;;;-0.44;78.50;100323.31;5072471;28;20032;-81
2022/03/07 01:19:59;;;;;;;30.75;20.38;;;;;;;-0.39;78.78;100335.31;5072135;28;20040;-81
2022/03/07 01:22:24;;;;;;;31.40;19.27;;;;;;;-0.43;78.85;100314.78;5072301;28;20020;-80
2022/03/07 01:24:49;;;;;;;28.40;18.27;;;;;;;-0.41;78.96;100321.66;5072329;28;20024;-81
2022/03/07 01:27:15;;;;;;;30.70;18.88;;;;;;;-0.35;79.71;100328.50;5071805;28;20021;-81
2022/03/07 01:29:40;;;;;;;33.22;20.77;;;;;;;-0.42;79.67;100309.69;5073289;28;20036;-81
2022/03/07 01:32:06;;;;;;;30.13;18.77;;;;;;;-0.47;79.61;100295.13;5070496;28;20033;-80
2022/03/07 01:34:32;;;;;;;30.67;19.45;;;;;;;-0.38;79.91;100302.88;5071141;28;20040;-81
2022/03/07 01:36:57;;;;;;;31.33;18.88;;;;;;;-0.34;79.78;100299.50;5054076;28;20028;-82
2022/03/07 01:39:23;;;;;;;29.95;17.73;;;;;;;-0.39;79.90;100288.38;5053509;28;20212;-82
2022/03/07 01:41:48;;;;;;;26.38;17.77;;;;;;;-0.49;79.87;100277.22;5053862;28;20035;-82
2022/03/07 01:44:18;;;;;;;25.25;17.83;;;;;;;-0.44;80.39;100283.22;5053584;28;20383;-82
2022/03/07 01:46:44;;;;;;;26.37;16.90;;;;;;;-0.39;80.67;100283.25;5070311;28;20440;-82
2022/03/07 01:49:09;;;;;;;29.70;18.27;;;;;;;-0.53;81.01;100267.81;5070422;28;20112;-81
2022/03/07 01:51:34;;;;;;;29.55;18.40;;;;;;;-0.41;81.47;100292.66;5053704;28;20029;-81
2022/03/07 01:54:00;;;;;;;29.48;18.23;;;;;;;-0.42;81.58;100290.91;5053785;28;20036;-81
2022/03/07 01:56:25;;;;;;;27.33;18.52;;;;;;;-0.41;81.64;100298.63;5070674;28;20082;-80
2022/03/07 01:58:51;;;;;;;30.33;18.77;;;;;;;-0.45;81.38;100302.00;5053622;28;20131;-80
2022/03/07 02:01:16;;;;;;;29.35;18.25;;;;;;;-0.43;81.76;100296.88;5070147;28;20032;-81
2022/03/07 02:03:42;;;;;;;31.52;18.95;;;;;;;-0.42;81.69;100296.91;5072059;28;20072;-81
2022/03/07 02:06:07;;;;;;;30.15;18.05;;;;;;;-0.55;81.80;100262.69;5072489;28;20029;-81
2022/03/07 02:08:33;;;;;;;26.98;17.60;;;;;;;-0.51;81.61;100281.44;5071242;28;20093;-81
2022/03/07 02:10:59;;;;;;;38.13;20.92;;;;;;;-0.49;82.09;100290.00;5071280;28;20119;-82
2022/03/07 02:13:25;;;;;;;32.67;18.33;;;;;;;-0.53;82.32;100286.56;5071256;28;20032;-79
2022/03/07 02:15:55;;;;;;;32.25;17.88;;;;;;;-0.51;82.70;100289.13;5073062;28;20040;-80
2022/03/07 02:18:21;;;;;;;28.20;17.08;;;;;;;-0.53;83.13;100285.72;5071172;28;20028;-81
2022/03/07 02:20:52;;;;;;;30.58;17.48;;;;;;;-0.54;83.14;100291.69;5072527;28;20028;-80
2022/03/07 02:23:17;;;;;;;28.13;17.02;;;;;;;-0.54;83.25;100289.97;5070818;28;20494;-81
2022/03/07 02:25:43;;;;;;;27.77;17.08;;;;;;;-0.53;83.23;100278.03;5072171;28;20024;-81
2022/03/07 02:28:08;;;;;;;27.27;16.98;;;;;;;-0.54;83.72;100284.00;5072226;28;20025;-80
2022/03/07 02:30:33;;;;;;;27.50;17.58;;;;;;;-0.62;83.66;100270.28;5072638;28;20507;-80
2022/03/07 02:32:59;;;;;;;27.15;17.15;;;;;;;-0.55;84.13;100284.81;5071008;28;20039;-80
2022/03/07 02:35:24;;;;;;;26.75;15.88;;;;;;;-0.56;84.11;100280.56;5070703;28;20017;-81
2022/03/07 02:37:50;;;;;;;25.05;15.43;;;;;;;-0.56;84.77;100283.97;5072162;28;20581;-80
2022/03/07 02:40:19;;;;;;;29.75;17.23;;;;;;;-0.54;84.46;100289.97;5070502;28;20075;-80
2022/03/07 02:42:44;;;;;;;27.00;16.35;;;;;;;-0.54;84.48;100281.44;5070922;28;20491;-81
2022/03/07 02:45:10;;;;;;;29.20;16.80;;;;;;;-0.67;84.86;100257.47;5070651;28;20037;-80
2022/03/07 02:47:35;;;;;;;27.17;17.25;;;;;;;-0.55;84.49;100280.59;5072159;28;20423;-80
2022/03/07 02:50:01;;;;;;;26.70;17.15;;;;;;;-0.49;84.71;100292.56;5070210;28;20033;-80
2022/03/07 02:52:26;;;;;;;25.10;17.05;;;;;;;-0.55;85.50;100285.72;5070407;28;20028;-80
2022/03/07 02:54:51;;;;;;;25.92;16.52;;;;;;;-0.64;85.35;100269.41;5072189;28;20036;-80
2022/03/07 02:57:17;;;;;;;24.67;16.27;;;;;;;-0.53;86.08;100295.94;5070623;28;20043;-80
2022/03/07 02:59:42;;;;;;;27.15;15.93;;;;;;;-0.64;86.17;100266.84;5070752;28;20631;-80
2022/03/07 03:02:08;;;;;;;26.25;16.02;;;;;;;-0.53;85.96;100278.03;5071822;28;20028;-80
2022/03/07 03:04:34;;;;;;;26.88;15.90;;;;;;;-0.48;86.49;100285.75;5070824;28;20063;-80
2022/03/07 03:07:01;;;;;;;24.38;15.85;;;;;;;-0.53;86.75;100276.34;5071858;28;20028;-80
2022/03/07 03:09:26;;;;;;;29.15;16.23;;;;;;;-0.52;86.58;100279.75;5071537;28;20028;-80
2022/03/07 03:11:51;;;;;;;26.52;15.18;;;;;;;-0.49;87.37;100282.34;5072045;28;20043;-80
2022/03/07 03:14:17;;;;;;;24.92;15.43;;;;;;;-0.62;86.90;100260.91;5089217;28;20032;-80
2022/03/07 03:16:43;;;;;;;24.33;15.25;;;;;;;-0.54;87.18;100269.50;5089485;28;20133;-81
2022/03/07 03:19:08;;;;;;;26.00;15.57;;;;;;;-0.60;87.60;100253.25;5089165;28;20153;-80
2022/03/07 03:21:33;;;;;;;25.98;15.45;;;;;;;-0.53;87.82;100272.91;5089328;28;20024;-80
2022/03/07 03:23:59;;;;;;;30.20;15.70;;;;;;;-0.51;88.06;100273.78;5089311;28;20130;-80
2022/03/07 03:26:24;;;;;;;26.58;15.25;;;;;;;-0.52;87.96;100266.94;5089261;28;20028;-80
2022/03/07 03:28:50;;;;;;;22.55;14.15;;;;;;;-0.53;88.33;100263.53;5089504;28;20036;-80
2022/03/07 03:31:15;;;;;;;22.55;14.90;;;;;;;-0.56;88.11;100239.63;5089129;28;20024;-80
2022/03/07 03:33:42;;;;;;;26.35;15.75;;;;;;;-0.46;88.35;100248.22;5089594;28;20062;-80
2022/03/07 03:36:08;;;;;;;24.08;15.40;;;;;;;-0.49;88.43;100245.66;5089115;28;20028;-80
2022/03/07 03:38:33;;;;;;;22.38;14.18;;;;;;;-0.51;88.94;100236.28;5089181;28;20038;-80
2022/03/07 03:40:59;;;;;;;20.25;13.45;;;;;;;-0.61;89.26;100213.16;5089265;28;20036;-80
2022/03/07 03:43:24;;;;;;;26.90;14.38;;;;;;;-0.60;89.45;100222.53;5089192;28;20090;-79
2022/03/07 03:45:50;;;;;;;20.48;12.88;;;;;;;-0.56;89.59;100226.84;5075226;28;20040;-80
2022/03/07 03:48:15;;;;;;;23.52;13.30;;;;;;;-0.49;89.77;100245.66;5071198;28;20024;-80
2022/03/07 03:50:40;;;;;;;23.08;13.43;;;;;;;-0.49;89.94;100249.06;5071471;28;20028;-80
2022/03/07 03:53:06;;;;;;;23.50;13.48;;;;;;;-0.52;90.54;100243.94;5069972;28;20369;-80
2022/03/07 03:55:31;;;;;;;26.02;13.50;;;;;;;-0.53;90.12;100240.50;5070118;28;20028;-81
2022/03/07 03:57:57;;;;;;;21.13;12.90;;;;;;;-0.43;91.06;100250.81;5070247;28;20052;-80
2022/03/07 04:00:24;;;;;;;26.30;14.15;;;;;;;-0.46;90.99;100248.22;5069901;28;20025;-80
2022/03/07 04:02:49;;;;;;;22.90;13.75;;;;;;;-0.44;91.30;100251.66;5073805;28;20032;-80
2022/03/07 04:05:16;;;;;;;22.13;13.18;;;;;;;-0.53;91.52;100237.09;5073514;28;20028;-80
2022/03/07 04:07:42;;;;;;;25.05;14.85;;;;;;;-0.49;91.63;100243.09;5074852;28;20024;-81
2022/03/07 04:10:09;;;;;;;21.25;13.68;;;;;;;-0.49;92.26;100254.19;5073859;28;20044;-80
2022/03/07 04:12:35;;;;;;;22.90;13.25;;;;;;;-0.46;92.72;100256.78;5074866;28;20484;-80
2022/03/07 04:15:01;;;;;;;19.88;12.70;;;;;;;-0.46;92.18;100255.91;5073640;28;20094;-80
2022/03/07 04:17:26;;;;;;;19.15;12.85;;;;;;;-0.46;92.72;100261.00;5073324;28;20039;-80
2022/03/07 04:19:51;;;;;;;21.05;12.70;;;;;;;-0.44;93.00;100255.06;5073462;28;20063;-80
2022/03/07 04:22:17;;;;;;;20.58;13.10;;;;;;;-0.44;93.36;100257.63;5073099;28;20491;-80
2022/03/07 04:24:42;;;;;;;17.15;11.85;;;;;;;-0.40;93.16;100259.38;5073529;28;20376;-80
2022/03/07 04:27:08;;;;;;;20.48;12.48;;;;;;;-0.41;93.49;100257.66;5074737;28;20027;-80
2022/03/07 04:29:34;;;;;;;22.38;12.73;;;;;;;-0.40;93.54;100267.06;5074394;28;20033;-80
2022/03/07 04:32:00;;;;;;;17.60;12.68;;;;;;;-0.36;94.01;100265.38;5074662;28;20027;-80
2022/03/07 04:34:26;;;;;;;18.38;11.50;;;;;;;-0.35;94.01;100255.13;5073076;28;20024;-80
2022/03/07 04:36:52;;;;;;;19.20;12.27;;;;;;;-0.32;94.08;100273.09;5074425;28;20035;-80
2022/03/07 04:39:17;;;;;;;20.00;11.93;;;;;;;-0.36;94.38;100263.66;5073243;28;20028;-80
2022/03/07 04:41:44;;;;;;;22.83;13.05;;;;;;;-0.34;94.59;100266.22;5073280;28;20025;-80
2022/03/07 04:44:11;;;;;;;23.00;12.82;;;;;;;-0.33;94.79;100273.94;5073223;28;20067;-80
2022/03/07 04:46:37;;;;;;;22.63;12.63;;;;;;;-0.35;94.88;100261.97;5072681;28;20055;-80
2022/03/07 04:49:02;;;;;;;22.35;12.20;;;;;;;-0.30;95.19;100265.41;5074134;28;20025;-80
2022/03/07 04:51:28;;;;;;;18.10;11.27;;;;;;;-0.26;95.41;100278.25;5072517;28;20236;-81
2022/03/07 04:53:53;;;;;;;20.05;13.18;;;;;;;-0.29;95.82;100273.13;5073074;28;20028;-81
2022/03/07 04:56:18;;;;;;;22.25;13.00;;;;;;;-0.33;96.29;100270.53;5072743;28;20060;-81
2022/03/07 04:58:44;;;;;;;19.40;12.35;;;;;;;-0.31;96.22;100279.06;5072859;28;20498;-80
2022/03/07 05:01:09;;;;;;;21.95;14.27;;;;;;;-0.27;96.49;100281.66;5072844;28;20467;-80
2022/03/07 05:03:36;;;;;;;21.23;12.10;;;;;;;-0.43;96.68;100263.59;5072451;28;20024;-81
2022/03/07 05:06:01;;;;;;;19.58;12.43;;;;;;;-0.30;97.23;100281.63;5051236;28;20041;-81
2022/03/07 05:08:26;;;;;;;20.70;12.82;;;;;;;-0.31;97.55;100287.59;5034358;28;20043;-81
2022/03/07 05:10:52;;;;;;;22.42;13.27;;;;;;;-0.30;98.01;100285.88;5034598;28;20128;-80
2022/03/07 05:13:17;;;;;;;18.30;12.00;;;;;;;-0.31;98.28;100281.63;5033824;28;20037;-81
2022/03/07 05:15:43;;;;;;;18.15;12.02;;;;;;;-0.35;98.10;100270.50;5011333;28;20170;-81
2022/03/07 05:18:08;;;;;;;20.85;11.90;;;;;;;-0.35;99.15;100283.28;5011533;28;20052;-80
2022/03/07 05:20:34;;;;;;;21.55;11.73;;;;;;;-0.35;98.97;100285.84;4994759;28;20124;-81
2022/03/07 05:23:00;;;;;;;22.02;12.50;;;;;;;-0.43;98.91;100274.69;5011482;28;20037;-81
2022/03/07 05:25:25;;;;;;;21.25;11.40;;;;;;;-0.36;99.74;100284.16;4994689;28;20034;-81
2022/03/07 05:27:51;;;;;;;19.55;11.85;;;;;;;-0.38;99.93;100280.72;4994861;28;20441;-81
2022/03/07 05:30:19;;;;;;;19.02;12.35;;;;;;;-0.27;100.00;100291.88;4994704;28;20034;-81
2022/03/07 05:32:47;;;;;;;19.83;12.05;;;;;;;-0.27;100.00;100294.44;5011265;28;20053;-81
2022/03/07 05:35:14;;;;;;;19.25;11.43;;;;;;;-0.29;100.00;100295.31;4994726;28;20062;-80
2022/03/07 05:37:40;;;;;;;21.73;12.15;;;;;;;-0.37;100.00;100279.88;5009513;28;20038;-81
2022/03/07 05:40:07;;;;;;;19.02;12.23;;;;;;;-0.26;100.00;100302.97;5030928;28;20026;-81
2022/03/07 05:42:34;;;;;;;17.35;11.35;;;;;;;-0.28;100.00;100290.19;5013943;28;20029;-81
2022/03/07 05:44:59;;;;;;;20.00;11.40;;;;;;;-0.23;100.00;100297.03;5030546;28;20033;-81
2022/03/07 05:47:25;;;;;;;20.42;12.00;;;;;;;-0.27;100.00;100288.47;5062998;28;20033;-81
2022/03/07 05:49:50;;;;;;;21.77;12.00;;;;;;;-0.24;100.00;100291.06;5071712;28;20033;-81
2022/03/07 05:52:16;;;;;;;27.90;16.80;;;;;;;-0.18;100.00;100303.91;5073094;28;20468;-81
2022/03/07 05:54:41;;;;;;;93.45;38.20;;;;;;;-0.20;100.00;100300.50;5090613;28;20511;-81
2022/03/07 05:57:06;;;;;;;52.42;25.95;;;;;;;-0.18;100.00;100301.34;5090717;28;20032;-81
2022/03/07 05:59:32;;;;;;;36.78;21.08;;;;;;;-0.27;100.00;100293.59;5090381;28;20044;-81
2022/03/07 06:01:58;;;;;;;23.73;13.63;;;;;;;-0.16;100.00;100315.03;5090844;28;20024;-80
2022/03/07 06:04:24;;;;;;;22.25;14.75;;;;;;;-0.16;100.00;100312.47;5073190;28;20127;-80
2022/03/07 06:06:49;;;;;;;22.25;13.57;;;;;;;-0.11;100.00;100312.50;5090393;28;20137;-80
2022/03/07 06:09:15;;;;;;;22.73;14.30;;;;;;;-0.09;100.00;100303.09;5090300;28;20040;-80
2022/03/07 06:11:40;;;;;;;21.33;13.20;;;;;;;-0.01;100.00;100314.25;5090173;28;20365;-80
2022/03/07 06:14:05;;;;;;;20.42;12.38;;;;;;;-0.01;100.00;100297.19;5090257;28;20048;-80
2022/03/07 06:16:31;;;;;;;22.38;13.50;;;;;;;0.03;100.00;100310.03;5090003;28;20035;-80
2022/03/07 06:18:56;;;;;;;25.35;14.13;;;;;;;0.04;100.00;100317.72;5073142;28;20070;-80
2022/03/07 06:21:22;;;;;;;25.02;15.18;;;;;;;0.09;100.00;100312.63;5089665;28;20032;-80
2022/03/07 06:23:47;;;;;;;27.15;15.32;;;;;;;0.10;100.00;100312.63;5090039;28;20119;-80
2022/03/07 06:26:13;;;;;;;27.13;14.80;;;;;;;0.10;100.00;100316.91;5076678;28;20029;-80
2022/03/07 06:28:38;;;;;;;30.38;14.65;;;;;;;0.12;100.00;100312.63;5072018;28;20058;-80
2022/03/07 06:31:04;;;;;;;25.40;13.98;;;;;;;0.15;100.00;100316.09;5070991;28;20471;-80
2022/03/07 06:33:29;;;;;;;33.17;14.48;;;;;;;0.04;100.00;100288.69;5071989;28;20039;-80
2022/03/07 06:35:55;;;;;;;24.67;14.27;;;;;;;0.13;100.00;100297.31;5071089;28;20028;-80
2022/03/07 06:38:21;;;;;;;25.40;13.75;;;;;;;0.26;100.00;100313.59;5072009;28;20036;-80
2022/03/07 06:40:46;;;;;;;26.58;15.35;;;;;;;0.40;100.00;100311.09;5070994;28;20035;-80
2022/03/07 06:43:12;;;;;;;21.73;12.52;;;;;;;0.45;100.00;100315.38;5070884;28;20484;-80
2022/03/07 06:45:38;;;;;;;23.20;13.40;;;;;;;0.53;100.00;100306.91;5070182;28;20048;-80
2022/03/07 06:48:04;;;;;;;27.92;16.92;;;;;;;0.84;100.00;100297.59;5070765;28;20109;-80
2022/03/07 06:50:29;;;;;;;30.85;17.50;;;;;;;1.78;100.00;100306.31;5070814;28;20029;-81
2022/03/07 06:52:55;;;;;;;24.73;14.65;;;;;;;1.96;98.38;100303.72;5072144;28;20498;-80
2022/03/07 06:55:20;;;;;;;30.58;17.98;;;;;;;2.53;97.83;100307.03;5070550;28;20544;-80
2022/03/07 06:57:46;;;;;;;24.05;14.93;;;;;;;3.38;95.51;100297.16;5070783;28;20115;-80
2022/03/07 07:00:14;;;;;;;23.52;14.00;;;;;;;4.13;92.84;100294.81;5070738;28;20699;-80
2022/03/07 07:02:40;;;;;;;28.92;13.52;;;;;;;4.91;89.71;100298.19;5071760;28;20028;-81
2022/03/07 07:05:07;;;;;;;25.80;13.60;;;;;;;5.68;86.20;100292.75;5070877;28;20384;-80
2022/03/07 07:07:34;;;;;;;21.50;12.77;;;;;;;5.87;83.97;100301.06;5071821;28;20081;-80
2022/03/07 07:10:00;;;;;;;22.27;12.40;;;;;;;6.12;82.45;100289.44;5070708;28;20111;-79
2022/03/07 07:12:25;;;;;;;22.88;12.32;;;;;;;6.38;80.80;100301.03;5071531;28;20045;-79
2022/03/07 07:14:51;;;;;;;20.75;12.40;;;;;;;6.56;79.90;100295.50;5070512;28;20062;-79
2022/03/07 07:17:17;;;;;;;21.30;12.95;;;;;;;6.92;79.25;100290.47;5071979;28;20365;-80
2022/03/07 07:19:42;;;;;;;14.73;11.55;;;;;;;7.41;76.73;100276.38;5072033;28;20444;-80
2022/03/07 07:22:08;;;;;;;19.20;12.20;;;;;;;8.23;73.47;100286.44;5052690;28;20037;-80
2022/03/07 07:24:34;;;;;;;18.98;11.90;;;;;;;8.57;72.29;100288.13;5050237;28;20065;-79
2022/03/07 07:26:59;;;;;;;19.10;11.07;;;;;;;8.53;71.83;100287.34;5051663;28;20354;-79
2022/03/07 07:29:25;;;;;;;19.67;11.10;;;;;;;8.44;71.37;100287.63;5050110;28;20388;-79
2022/03/07 07:31:51;;;;;;;18.75;11.60;;;;;;;9.25;68.94;100287.84;5051872;28;20376;-79
2022/03/07 07:34:17;;;;;;;17.00;9.95;;;;;;;9.29;67.25;100279.03;5050472;28;20025;-80
2022/03/07 07:36:43;;;;;;;19.17;11.73;;;;;;;9.02;67.50;100290.25;5052392;28;20025;-79
2022/03/07 07:39:08;;;;;;;15.40;10.75;;;;;;;8.83;68.54;100287.38;5055640;28;20465;-79
2022/03/07 07:41:34;;;;;;;15.73;11.25;;;;;;;8.64;67.32;100281.88;5055640;28;20082;-79
2022/03/07 07:44:00;;;;;;;17.48;11.55;;;;;;;8.37;67.70;100258.38;5054189;28;20445;-79
2022/03/07 07:46:26;;;;;;;16.27;10.75;;;;;;;8.32;67.80;100285.31;5055068;28;20555;-79
2022/03/07 07:48:51;;;;;;;20.75;10.57;;;;;;;8.21;68.74;100281.25;5055482;28;20112;-80
2022/03/07 07:51:16;;;;;;;16.40;11.15;;;;;;;8.42;68.55;100285.06;5055264;28;20396;-80
2022/03/07 07:53:42;;;;;;;15.23;10.65;;;;;;;8.35;67.61;100269.69;5055308;28;20037;-80
2022/03/07 07:56:09;;;;;;;13.77;8.75;;;;;;;8.33;68.17;100277.50;5053888;28;20025;-80
2022/03/07 07:58:34;;;;;;;11.65;8.48;;;;;;;8.34;67.92;100270.53;5072077;28;20033;-80
2022/03/07 08:00:59;;;;;;;11.10;8.90;;;;;;;7.96;67.93;100291.47;5072495;28;20675;-80
2022/03/07 08:03:25;;;;;;;22.40;15.85;;;;;;;7.33;68.57;100276.59;5072335;28;20431;-80
2022/03/07 08:05:51;;;;;;;20.08;12.30;;;;;;;6.77;70.19;100278.66;5055698;28;20032;-80
2022/03/07 08:08:17;;;;;;;16.45;10.43;;;;;;;6.47;71.81;100299.13;5055613;28;20036;-79
2022/03/07 08:10:42;;;;;;;13.73;10.27;;;;;;;6.02;73.29;100279.28;5073409;28;20106;-79
2022/03/07 08:13:08;;;;;;;18.92;11.25;;;;;;;5.87;75.16;100309.66;5081930;28;20032;-80
2022/03/07 08:15:33;;;;;;;18.13;11.35;;;;;;;5.95;75.87;100296.66;5082878;28;20471;-79
2022/03/07 08:17:59;;;;;;;28.90;13.48;;;;;;;5.85;75.86;100277.81;5092692;28;20044;-80
2022/03/07 08:20:25;;;;;;;24.30;12.38;;;;;;;5.65;76.50;100288.50;5092627;28;20047;-80
2022/03/07 08:22:51;;;;;;;21.23;13.45;;;;;;;5.35;77.80;100296.69;5075596;28;20036;-80
2022/03/07 08:25:18;;;;;;;18.23;12.57;;;;;;;5.54;79.19;100315.38;5092518;28;20084;-80
2022/03/07 08:27:44;;;;;;;18.90;12.52;;;;;;;5.82;79.22;100306.31;5092218;28;20035;-80
2022/03/07 08:30:11;;;;;;;17.92;12.43;;;;;;;5.86;78.34;100294.19;5072889;28;20473;-79
2022/03/07 08:32:38;;;;;;;22.98;13.68;;;;;;;6.05;78.91;100293.00;5074537;28;20031;-80
2022/03/07 08:35:05;;;;;;;19.58;13.85;;;;;;;6.09;78.68;100280.88;5074671;28;20035;-79
2022/03/07 08:37:32;;;;;;;17.52;12.68;;;;;;;5.93;78.94;100288.06;5074140;28;20387;-79
2022/03/07 08:39:58;;;;;;;19.90;13.02;;;;;;;5.86;79.49;100258.00;5074540;28;20025;-80
2022/03/07 08:42:23;;;;;;;26.02;14.32;;;;;;;6.13;79.69;100267.88;5074726;28;20487;-80
2022/03/07 08:44:51;;;;;;;20.17;13.05;;;;;;;6.16;78.68;100269.56;5067379;28;20037;-80
2022/03/07 08:47:16;;;;;;;15.73;11.32;;;;;;;6.06;77.88;100258.50;5072291;28;20063;-79
2022/03/07 08:49:42;;;;;;;19.58;11.45;;;;;;;5.98;77.57;100271.59;5072711;28;20503;-80
2022/03/07 08:52:08;;;;;;;16.75;10.48;;;;;;;5.75;78.10;100251.28;5072932;28;20016;-80
2022/03/07 08:54:34;;;;;;;17.05;11.32;;;;;;;5.57;78.69;100254.19;5072447;28;20036;-80
2022/03/07 08:56:59;;;;;;;17.23;12.70;;;;;;;5.41;79.22;100263.91;5072820;28;20064;-80
2022/03/07 08:59:27;;;;;;;18.98;13.52;;;;;;;5.26;79.97;100261.53;5074032;28;20490;-80
2022/03/07 09:01:57;;;;;;;19.23;12.38;;;;;;;5.33;80.75;100259.72;5072764;28;20111;-80
2022/03/07 09:04:24;;;;;;;17.20;12.05;;;;;;;5.44;80.86;100250.09;5072762;28;20123;-80
2022/03/07 09:06:53;;;;;;;17.23;11.43;;;;;;;5.55;80.57;100252.47;5073700;28;20098;-80
2022/03/07 09:09:18;;;;;;;19.52;12.77;;;;;;;5.51;80.34;100244.78;5072558;28;20046;-80
2022/03/07 09:11:44;;;;;;;19.02;11.57;;;;;;;5.55;80.18;100250.75;5073563;28;20036;-80
2022/03/07 09:14:09;;;;;;;17.50;12.50;;;;;;;5.49;80.08;100246.53;5072409;28;20020;-78
2022/03/07 09:16:35;;;;;;;19.20;12.68;;;;;;;5.42;80.39;100234.59;5073789;28;20031;-80
2022/03/07 09:19:00;;;;;;;15.93;11.13;;;;;;;5.43;80.19;100227.69;5059789;28;20033;-79
2022/03/07 09:21:26;;;;;;;18.52;12.30;;;;;;;5.51;80.38;100242.19;5052403;28;20538;-79
2022/03/07 09:23:51;;;;;;;18.23;10.63;;;;;;;5.49;79.80;100238.78;5052078;28;20021;-79
2022/03/07 09:26:18;;;;;;;17.38;11.20;;;;;;;5.42;80.04;100229.44;5052256;28;20029;-80
2022/03/07 09:28:43;;;;;;;22.45;14.45;;;;;;;5.46;80.46;100231.09;5053190;28;20150;-80
2022/03/07 09:31:10;;;;;;;24.20;13.38;;;;;;;5.46;80.44;100233.66;5052434;28;20029;-80
2022/03/07 09:33:35;;;;;;;19.30;11.70;;;;;;;5.45;80.15;100239.72;5054488;28;20025;-79
2022/03/07 09:36:01;;;;;;;16.42;11.00;;;;;;;5.43;80.14;100235.44;5053827;28;20028;-79
2022/03/07 09:38:28;;;;;;;15.93;10.65;;;;;;;5.38;80.48;100209.69;5052085;28;20468;-80
2022/03/07 09:40:54;;;;;;;13.63;9.88;;;;;;;5.39;80.13;100224.31;5052918;28;20029;-80
2022/03/07 09:43:20;;;;;;;14.75;9.48;;;;;;;5.39;79.55;100223.44;5052106;28;20021;-80
2022/03/07 09:45:46;;;;;;;12.85;8.90;;;;;;;5.29;79.14;100222.75;5051575;28;20499;-80
2022/03/07 09:48:12;;;;;;;14.68;9.43;;;;;;;5.30;78.61;100244.25;5051880;28;20025;-80
2022/03/07 09:50:39;;;;;;;14.13;9.63;;;;;;;5.19;78.39;100226.38;5052949;28;20060;-78
2022/03/07 09:53:04;;;;;;;13.30;9.05;;;;;;;5.19;79.37;100227.22;5053866;28;20048;-80
2022/03/07 09:55:30;;;;;;;9.10;7.95;;;;;;;5.37;79.36;100215.75;5068580;28;20028;-80
2022/03/07 09:57:55;;;;;;;11.40;9.05;;;;;;;5.69;79.08;100224.69;5054744;28;20112;-80
2022/03/07 10:00:21;;;;;;;14.32;9.23;;;;;;;5.82;78.24;100213.25;5069419;28;20028;-80
2022/03/07 10:03:02;;;;;;;14.13;9.18;;;;;;;5.99;78.19;100207.81;5071477;28;20025;-80
2022/03/07 10:05:34;;;;;;;15.13;9.38;;;;;;;6.36;77.66;100213.09;5072849;28;20060;-80
2022/03/07 10:07:59;;;;;;;12.90;9.63;;;;;;;6.50;76.62;100208.50;5071338;28;20025;-80
2022/03/07 10:10:30;;;;;;;12.55;9.02;;;;;;;6.48;76.46;100210.25;5071271;28;20357;-80
2022/03/07 10:12:56;;;;;;;;;;;;;;;6.55;77.21;100229.09;5072979;28;20444;-80
2022/03/07 10:15:22;;;;;;;15.07;10.10;;;;;;;6.56;77.25;100217.84;5072568;28;19999;-80
2022/03/07 10:17:53;;;;;;;14.10;9.68;;;;;;;6.48;77.49;100225.75;5071101;28;20039;-80
2022/03/07 10:20:24;;;;;;;25.23;16.70;;;;;;;6.47;78.05;100231.00;5072742;28;20029;-80
2022/03/07 10:22:52;;;;;;;15.93;11.95;;;;;;;6.30;78.37;100202.88;5070770;28;20052;-80
2022/03/07 10:25:31;;;;;;;18.17;11.48;;;;;;;6.11;78.19;100198.94;5072836;28;20078;-80
2022/03/07 10:28:00;;;;;;;14.70;10.90;;;;;;;5.95;78.73;100219.09;5072224;28;20032;-80
2022/03/07 10:30:32;;;;;;;17.65;12.18;;;;;;;5.72;79.89;100209.13;5071131;28;20016;-80
2022/03/07 10:33:05;;;;;;;15.48;11.68;;;;;;;5.59;80.64;100213.66;5071976;28;20403;-80
2022/03/07 10:35:33;;;;;;;16.25;13.07;;;;;;;5.59;81.44;100229.16;5069651;28;20044;-80
2022/03/07 10:38:02;;;;;;;15.82;11.02;;;;;;;5.54;82.14;100217.19;5052999;28;20158;-80
2022/03/07 10:40:29;;;;;;;16.70;12.07;;;;;;;5.50;81.88;100219.81;5069712;28;20036;-80
2022/03/07 10:42:56;;;;;;;13.38;10.38;;;;;;;5.52;81.25;100224.97;5052820;28;20066;-80
2022/03/07 10:45:22;;;;;;;16.83;11.10;;;;;;;5.33;80.77;100200.31;5052679;28;20044;-81
2022/03/07 10:47:59;;;;;;;14.18;10.85;;;;;;;5.57;80.16;100220.59;5052614;28;20077;-81
2022/03/07 10:50:27;;;;;;;12.32;9.93;;;;;;;5.55;80.03;100224.91;5052820;28;20060;-81
2022/03/07 10:53:02;;;;;;;16.23;10.65;;;;;;;5.90;79.41;100228.59;5069218;28;20033;-81
2022/03/07 10:55:29;;;;;;;13.60;9.52;;;;;;;5.97;77.73;100225.91;5069692;28;20032;-80
2022/03/07 10:58:09;;;;;;;14.05;10.10;;;;;;;6.10;77.56;100223.09;5069303;28;20056;-81
2022/03/07 11:00:47;;;;;;;17.60;11.68;;;;;;;5.83;75.73;100230.47;5069501;28;20044;-80
2022/03/07 11:03:18;;;;;;;25.80;14.88;;;;;;;5.58;75.21;100214.53;5069501;28;20380;-80
2022/03/07 11:05:45;;;;;;;17.02;11.10;;;;;;;5.62;75.31;100217.91;5069204;28;20045;-80
2022/03/07 11:08:10;;;;;;;14.40;9.85;;;;;;;5.73;74.82;100203.06;5052483;28;20561;-80